Time;durP1;ratioP1;P1;durP2;ratioP2;P2;SDS_P1;SDS_P2;PMS_P1;PMS_P2;Temp;Humidity;BMP_temperature;BMP_pressure;BME280_temperature;BME280_humidity;BME280_pressure;Samples;Min_cycle;Max_cycle;Signal;HPM_P1;HPM_P2
2023/04/16 00:02:05;;;;;;;;;9.00;8.25;;;;;;;;4980669;28;45425;-77
2023/04/16 00:04:30;;;;;;;;;13.00;10.00;;;;;;;;4988708;28;45397;-77
2023/04/16 00:06:55;;;;;;;;;8.25;6.75;;;;;;;;4985954;28;47398;-78
2023/04/16 00:09:21;;;;;;;;;10.00;10.00;;;;;;;;4981499;28;45374;-77
2023/04/16 00:11:46;;;;;;;;;13.25;11.25;;;;;;;;4992779;28;45448;-78
2023/04/16 00:14:11;;;;;;;;;12.25;9.75;;;;;;;;4981548;28;45463;-75
2023/04/16 00:16:37;;;;;;;;;15.75;11.00;;;;;;;;4996151;28;45968;-75
2023/04/16 00:19:02;;;;;;;;;14.50;11.50;;;;;;;;4995906;28;45368;-75
2023/04/16 00:21:27;;;;;;;;;22.00;18.50;;;;;;;;4981545;28;45259;-76
2023/04/16 00:23:52;;;;;;;;;16.75;15.50;;;;;;;;4993663;28;45190;-77
2023/04/16 00:26:18;;;;;;;;;12.50;11.50;;;;;;;;4981649;28;46127;-76
2023/04/16 00:28:43;;;;;;;;;24.00;19.25;;;;;;;;4978255;28;45515;-77
2023/04/16 00:31:08;;;;;;;;;17.00;15.50;;;;;;;;4973816;28;46091;-77
2023/04/16 00:33:33;;;;;;;;;15.50;15.00;;;;;;;;4989100;28;45456;-78
2023/04/16 00:35:59;;;;;;;;;15.50;15.50;;;;;;;;4989003;28;46319;-77
2023/04/16 00:38:28;;;;;;;;;21.00;16.75;;;;;;;;4993508;28;45319;-79
2023/04/16 00:40:54;;;;;;;;;17.25;17.00;;;;;;;;4997400;28;45484;-78
2023/04/16 00:43:23;;;;;;;;;15.50;15.50;;;;;;;;4978392;28;45408;-78
2023/04/16 00:45:49;;;;;;;;;15.00;14.00;;;;;;;;4991393;28;46495;-79
2023/04/16 00:48:14;;;;;;;;;13.50;12.50;;;;;;;;4977603;28;45757;-78
2023/04/16 00:50:40;;;;;;;;;15.00;14.00;;;;;;;;4992618;28;45361;-79
2023/04/16 00:53:06;;;;;;;;;14.75;13.75;;;;;;;;4979305;28;45825;-79
2023/04/16 00:55:31;;;;;;;;;17.00;16.25;;;;;;;;4986357;28;46058;-78
2023/04/16 00:57:56;;;;;;;;;16.25;15.00;;;;;;;;4976639;28;45407;-79
2023/04/16 01:00:21;;;;;;;;;16.25;15.00;;;;;;;;4978915;28;45321;-78
2023/04/16 01:02:47;;;;;;;;;15.25;14.25;;;;;;;;4991373;28;45368;-79
2023/04/16 01:05:12;;;;;;;;;17.50;17.25;;;;;;;;4985073;28;46169;-78
2023/04/16 01:07:37;;;;;;;;;14.50;14.50;;;;;;;;4984172;28;45555;-77
2023/04/16 01:10:03;;;;;;;;;14.25;12.25;;;;;;;;4972371;28;45439;-78
2023/04/16 01:12:28;;;;;;;;;16.25;14.75;;;;;;;;4980256;28;45466;-77
2023/04/16 01:14:53;;;;;;;;;18.00;17.00;;;;;;;;4969615;28;45516;-78
2023/04/16 01:17:19;;;;;;;;;10.25;8.75;;;;;;;;4981639;28;45421;-78
2023/04/16 01:19:44;;;;;;;;;17.50;16.00;;;;;;;;4997178;28;45411;-78
2023/04/16 01:22:09;;;;;;;;;12.50;11.25;;;;;;;;4985858;28;45543;-78
2023/04/16 01:24:35;;;;;;;;;15.25;13.75;;;;;;;;4977304;28;45931;-78
2023/04/16 01:27:00;;;;;;;;;16.75;16.00;;;;;;;;4978275;28;46174;-79
2023/04/16 01:29:26;;;;;;;;;17.75;15.00;;;;;;;;4996841;28;45375;-78
2023/04/16 01:31:51;;;;;;;;;15.50;14.25;;;;;;;;4997007;28;45254;-77
2023/04/16 01:34:16;;;;;;;;;13.50;13.50;;;;;;;;4996462;28;46282;-78
2023/04/16 01:36:41;;;;;;;;;13.50;12.25;;;;;;;;4982640;28;45260;-76
2023/04/16 01:39:10;;;;;;;;;14.00;13.00;;;;;;;;4977007;28;45335;-78
2023/04/16 01:41:35;;;;;;;;;8.00;6.25;;;;;;;;4976871;28;45388;-78
2023/04/16 01:44:00;;;;;;;;;15.25;11.50;;;;;;;;4961331;28;46188;-78
2023/04/16 01:46:26;;;;;;;;;14.50;13.00;;;;;;;;4957451;28;45318;-77
2023/04/16 01:48:53;;;;;;;;;10.00;9.00;;;;;;;;4958172;28;45481;-78
2023/04/16 01:51:18;;;;;;;;;15.75;13.50;;;;;;;;4976151;28;45448;-79
2023/04/16 01:53:44;;;;;;;;;12.25;11.00;;;;;;;;4977352;28;46218;-79
2023/04/16 01:56:09;;;;;;;;;13.75;11.50;;;;;;;;4977039;28;45325;-79
2023/04/16 01:58:35;;;;;;;;;13.25;12.75;;;;;;;;4976966;28;45531;-79
2023/04/16 02:01:00;;;;;;;;;15.75;12.25;;;;;;;;4976664;28;45414;-79
2023/04/16 02:03:25;;;;;;;;;13.25;11.00;;;;;;;;4975704;28;45572;-78
2023/04/16 02:05:50;;;;;;;;;12.75;12.00;;;;;;;;4976229;28;45431;-78
2023/04/16 02:08:16;;;;;;;;;12.25;11.50;;;;;;;;4976475;28;45194;-79
2023/04/16 02:10:44;;;;;;;;;13.00;10.25;;;;;;;;4976767;28;45274;-78
2023/04/16 02:13:09;;;;;;;;;7.50;7.50;;;;;;;;4975812;28;47572;-79
2023/04/16 02:15:34;;;;;;;;;12.75;11.50;;;;;;;;4975871;28;45278;-78
2023/04/16 02:18:00;;;;;;;;;9.50;8.75;;;;;;;;4978106;28;45317;-78
2023/04/16 02:20:25;;;;;;;;;12.75;12.75;;;;;;;;4999664;28;45308;-78
2023/04/16 02:22:50;;;;;;;;;13.75;11.25;;;;;;;;5000218;28;46610;-79
2023/04/16 02:25:15;;;;;;;;;13.25;11.25;;;;;;;;5000363;28;45413;-77
2023/04/16 02:27:40;;;;;;;;;11.00;11.00;;;;;;;;5000492;28;45399;-78
2023/04/16 02:30:06;;;;;;;;;11.25;10.50;;;;;;;;5003982;28;45222;-78
2023/04/16 02:32:31;;;;;;;;;10.75;10.25;;;;;;;;4991545;28;46280;-77
2023/04/16 02:34:56;;;;;;;;;11.25;9.75;;;;;;;;4983951;28;45384;-76
2023/04/16 02:37:22;;;;;;;;;13.75;13.75;;;;;;;;4989843;28;45293;-76
2023/04/16 02:39:48;;;;;;;;;16.75;16.75;;;;;;;;4976508;28;45477;-77
2023/04/16 02:42:14;;;;;;;;;16.50;14.50;;;;;;;;4980525;28;46184;-78
2023/04/16 02:44:40;;;;;;;;;14.00;14.00;;;;;;;;4980563;28;45417;-76
2023/04/16 02:47:05;;;;;;;;;15.50;14.00;;;;;;;;4976196;28;45414;-77
2023/04/16 02:49:30;;;;;;;;;13.25;13.00;;;;;;;;4967685;28;45419;-77
2023/04/16 02:51:55;;;;;;;;;11.00;9.50;;;;;;;;4984668;28;46389;-78
2023/04/16 02:54:21;;;;;;;;;16.25;13.25;;;;;;;;4985765;28;45414;-77
2023/04/16 02:56:46;;;;;;;;;16.75;13.75;;;;;;;;4984412;28;45433;-78
2023/04/16 02:59:11;;;;;;;;;15.25;15.25;;;;;;;;4983925;28;45376;-77
2023/04/16 03:01:36;;;;;;;;;10.75;9.50;;;;;;;;4987002;28;46354;-78
2023/04/16 03:04:02;;;;;;;;;10.00;9.25;;;;;;;;4989068;28;45674;-78
2023/04/16 03:06:27;;;;;;;;;9.50;9.50;;;;;;;;4990485;28;45194;-77
2023/04/16 03:08:52;;;;;;;;;15.25;13.50;;;;;;;;4986836;28;45558;-77
2023/04/16 03:11:18;;;;;;;;;10.75;10.75;;;;;;;;4986779;28;45589;-78
2023/04/16 03:13:43;;;;;;;;;11.25;11.25;;;;;;;;4973393;28;45317;-79
2023/04/16 03:16:09;;;;;;;;;11.75;11.75;;;;;;;;4966116;28;45354;-79
2023/04/16 03:18:34;;;;;;;;;16.50;15.75;;;;;;;;4978163;28;45274;-79
2023/04/16 03:20:59;;;;;;;;;13.75;13.75;;;;;;;;4987149;28;46685;-79
2023/04/16 03:23:25;;;;;;;;;12.75;11.00;;;;;;;;4986039;28;45335;-78
2023/04/16 03:25:50;;;;;;;;;10.50;10.50;;;;;;;;4983236;28;45250;-78
2023/04/16 03:28:15;;;;;;;;;15.25;13.75;;;;;;;;4982742;28;45274;-78
2023/04/16 03:30:40;;;;;;;;;15.75;13.75;;;;;;;;4985519;28;45513;-78
2023/04/16 03:33:06;;;;;;;;;13.25;13.25;;;;;;;;4991717;28;45318;-79
2023/04/16 03:35:32;;;;;;;;;12.00;11.00;;;;;;;;4987753;28;45444;-78
2023/04/16 03:37:57;;;;;;;;;13.50;13.50;;;;;;;;4986534;28;45378;-77
2023/04/16 03:40:22;;;;;;;;;12.00;10.25;;;;;;;;4981664;28;45571;-78
2023/04/16 03:42:47;;;;;;;;;9.75;9.75;;;;;;;;4983746;28;45381;-78
2023/04/16 03:45:13;;;;;;;;;11.00;10.00;;;;;;;;4983268;28;45482;-79
2023/04/16 03:47:39;;;;;;;;;14.00;12.00;;;;;;;;4983757;28;45308;-78
2023/04/16 03:50:04;;;;;;;;;11.00;9.25;;;;;;;;4982692;28;45538;-77
2023/04/16 03:52:29;;;;;;;;;12.00;11.75;;;;;;;;4985207;28;45585;-78
2023/04/16 03:54:54;;;;;;;;;14.00;11.00;;;;;;;;4979910;28;45359;-78
2023/04/16 03:57:20;;;;;;;;;11.25;9.00;;;;;;;;4979346;28;45400;-78
2023/04/16 03:59:45;;;;;;;;;11.50;9.75;;;;;;;;4978129;28;45892;-79
2023/04/16 04:02:10;;;;;;;;;12.75;12.50;;;;;;;;4977185;28;45453;-78
2023/04/16 04:04:39;;;;;;;;;13.00;13.00;;;;;;;;4978389;28;45507;-78
2023/04/16 04:07:04;;;;;;;;;9.00;9.00;;;;;;;;4977950;28;45410;-78
2023/04/16 04:09:30;;;;;;;;;14.00;12.50;;;;;;;;4978106;28;45338;-78
2023/04/16 04:11:55;;;;;;;;;12.75;12.00;;;;;;;;4979897;28;45320;-79
2023/04/16 04:14:20;;;;;;;;;13.75;12.75;;;;;;;;4979723;28;45353;-78
2023/04/16 04:16:45;;;;;;;;;15.00;12.25;;;;;;;;4980973;28;45280;-78
2023/04/16 04:19:10;;;;;;;;;10.50;8.00;;;;;;;;4982398;28;46274;-78
2023/04/16 04:21:36;;;;;;;;;15.25;15.25;;;;;;;;4984778;28;45238;-78
2023/04/16 04:24:01;;;;;;;;;12.00;9.25;;;;;;;;4980997;28;45294;-78
2023/04/16 04:26:26;;;;;;;;;11.50;11.00;;;;;;;;4983860;28;45390;-78
2023/04/16 04:28:51;;;;;;;;;12.25;12.25;;;;;;;;4984762;28;46253;-79
2023/04/16 04:31:17;;;;;;;;;14.75;12.75;;;;;;;;4982443;28;45387;-78
2023/04/16 04:33:42;;;;;;;;;13.50;12.50;;;;;;;;4985154;28;45765;-77
2023/04/16 04:36:07;;;;;;;;;13.75;12.00;;;;;;;;4990714;28;45388;-77
2023/04/16 04:38:32;;;;;;;;;12.25;11.25;;;;;;;;4980226;28;45578;-77
2023/04/16 04:40:58;;;;;;;;;12.50;10.00;;;;;;;;4982315;28;45348;-76
2023/04/16 04:43:23;;;;;;;;;10.00;10.00;;;;;;;;4981412;28;45416;-79
2023/04/16 04:45:48;;;;;;;;;10.00;10.00;;;;;;;;4981606;28;45455;-77
2023/04/16 04:48:14;;;;;;;;;15.75;12.75;;;;;;;;4962965;28;45650;-78
2023/04/16 04:50:40;;;;;;;;;13.00;11.75;;;;;;;;4962113;28;45320;-78
2023/04/16 04:53:08;;;;;;;;;8.75;7.75;;;;;;;;4961348;28;45313;-78
2023/04/16 04:55:34;;;;;;;;;10.25;9.25;;;;;;;;4979996;28;45389;-78
2023/04/16 04:57:59;;;;;;;;;19.00;15.50;;;;;;;;4978434;28;46356;-78
2023/04/16 05:00:27;;;;;;;;;14.00;12.00;;;;;;;;4978209;28;45452;-78
2023/04/16 05:02:53;;;;;;;;;14.50;11.00;;;;;;;;4977810;28;45542;-78
2023/04/16 05:05:18;;;;;;;;;14.75;13.75;;;;;;;;4977591;28;45528;-77
2023/04/16 05:07:43;;;;;;;;;15.25;13.75;;;;;;;;4979413;28;45436;-78
2023/04/16 05:10:08;;;;;;;;;12.75;12.00;;;;;;;;4972395;28;47146;-78
2023/04/16 05:12:34;;;;;;;;;15.75;15.75;;;;;;;;4966322;28;45351;-78
2023/04/16 05:14:59;;;;;;;;;15.75;15.75;;;;;;;;4982977;28;45305;-78
2023/04/16 05:17:24;;;;;;;;;15.00;13.75;;;;;;;;4975432;28;45717;-78
2023/04/16 05:19:50;;;;;;;;;16.00;15.50;;;;;;;;4967556;28;45409;-78
2023/04/16 05:22:17;;;;;;;;;18.50;18.50;;;;;;;;4980150;28;45432;-79
2023/04/16 05:24:42;;;;;;;;;17.75;17.25;;;;;;;;4982677;28;45335;-79
2023/04/16 05:27:08;;;;;;;;;19.75;18.25;;;;;;;;4980506;28;46577;-78
2023/04/16 05:29:33;;;;;;;;;20.25;17.00;;;;;;;;4980265;28;45342;-79
2023/04/16 05:31:58;;;;;;;;;18.25;18.00;;;;;;;;4979840;28;45333;-79
2023/04/16 05:34:24;;;;;;;;;12.00;11.50;;;;;;;;4979289;28;45198;-79
2023/04/16 05:36:49;;;;;;;;;20.50;20.50;;;;;;;;4965177;28;46225;-76
2023/04/16 05:39:15;;;;;;;;;15.00;15.00;;;;;;;;4978135;28;45420;-78
2023/04/16 05:41:40;;;;;;;;;18.00;15.25;;;;;;;;4979627;28;45250;-77
2023/04/16 05:44:05;;;;;;;;;20.00;16.75;;;;;;;;4980868;28;45497;-78
2023/04/16 05:46:30;;;;;;;;;24.00;21.75;;;;;;;;4985927;28;45340;-79
2023/04/16 05:48:56;;;;;;;;;19.75;19.25;;;;;;;;4984860;28;45274;-78
2023/04/16 05:51:23;;;;;;;;;23.50;20.75;;;;;;;;4980284;28;45306;-79
2023/04/16 05:53:48;;;;;;;;;18.50;18.50;;;;;;;;4980496;28;45461;-79
2023/04/16 05:56:13;;;;;;;;;21.75;21.75;;;;;;;;4977235;28;46358;-78
2023/04/16 05:58:39;;;;;;;;;19.00;18.25;;;;;;;;4978369;28;45476;-78
2023/04/16 06:01:04;;;;;;;;;16.50;16.25;;;;;;;;4977713;28;45341;-78
2023/04/16 06:03:29;;;;;;;;;42.25;39.50;;;;;;;;4978350;28;45391;-78
2023/04/16 06:05:55;;;;;;;;;36.25;30.00;;;;;;;;4977985;28;45372;-78
2023/04/16 06:08:20;;;;;;;;;23.00;20.25;;;;;;;;4976889;28;45428;-78
2023/04/16 06:10:46;;;;;;;;;23.25;23.00;;;;;;;;4977746;28;45306;-78
2023/04/16 06:13:11;;;;;;;;;19.50;18.25;;;;;;;;4979803;28;45330;-79
2023/04/16 06:15:36;;;;;;;;;24.00;19.50;;;;;;;;4979143;28;45405;-78
2023/04/16 06:18:01;;;;;;;;;27.50;20.75;;;;;;;;4965640;28;45374;-79
2023/04/16 06:20:27;;;;;;;;;26.00;21.00;;;;;;;;4962261;28;45425;-76
2023/04/16 06:22:52;;;;;;;;;23.00;21.50;;;;;;;;4959426;28;45457;-78
2023/04/16 06:25:17;;;;;;;;;20.75;17.75;;;;;;;;4960137;28;46250;-79
2023/04/16 06:27:42;;;;;;;;;25.75;24.00;;;;;;;;4979761;28;45355;-78
2023/04/16 06:30:11;;;;;;;;;24.75;20.50;;;;;;;;4981935;28;45228;-78
2023/04/16 06:32:37;;;;;;;;;30.75;24.25;;;;;;;;4982959;28;45420;-78
2023/04/16 06:35:02;;;;;;;;;27.00;25.75;;;;;;;;4980989;28;45543;-77
2023/04/16 06:37:27;;;;;;;;;30.50;23.50;;;;;;;;4980049;28;45840;-78
2023/04/16 06:39:53;;;;;;;;;25.50;23.00;;;;;;;;4978712;28;45426;-77
2023/04/16 06:42:19;;;;;;;;;36.25;31.25;;;;;;;;4977578;28;45642;-78
2023/04/16 06:44:45;;;;;;;;;26.25;24.50;;;;;;;;4979048;28;46166;-79
2023/04/16 06:47:10;;;;;;;;;29.75;25.75;;;;;;;;4980677;28;45500;-78
2023/04/16 06:49:36;;;;;;;;;29.50;27.00;;;;;;;;4982644;28;45334;-78
2023/04/16 06:52:01;;;;;;;;;28.75;26.50;;;;;;;;4979082;28;45400;-79
2023/04/16 06:54:26;;;;;;;;;34.25;28.00;;;;;;;;4979947;28;46981;-79
2023/04/16 06:56:51;;;;;;;;;27.50;24.50;;;;;;;;4981601;28;45376;-79
2023/04/16 06:59:16;;;;;;;;;32.25;29.50;;;;;;;;4981179;28;45361;-79
2023/04/16 07:01:42;;;;;;;;;30.25;29.75;;;;;;;;4981684;28;45500;-79
2023/04/16 07:04:07;;;;;;;;;33.50;31.25;;;;;;;;4983763;28;46544;-79
2023/04/16 07:06:33;;;;;;;;;31.00;28.75;;;;;;;;4985895;28;45286;-79
2023/04/16 07:08:58;;;;;;;;;31.00;30.50;;;;;;;;4983353;28;45252;-80
2023/04/16 07:11:24;;;;;;;;;29.00;27.50;;;;;;;;4983188;28;45266;-78
2023/04/16 07:13:50;;;;;;;;;34.50;29.50;;;;;;;;4984842;28;45374;-79
2023/04/16 07:16:16;;;;;;;;;28.75;27.75;;;;;;;;4983810;28;45163;-79
2023/04/16 07:18:41;;;;;;;;;31.00;28.75;;;;;;;;4982481;28;45322;-79
2023/04/16 07:21:06;;;;;;;;;32.75;29.00;;;;;;;;4983697;28;45494;-79
2023/04/16 07:23:32;;;;;;;;;34.00;29.75;;;;;;;;4983116;28;45374;-79
2023/04/16 07:25:57;;;;;;;;;33.50;29.25;;;;;;;;4983122;28;45453;-80
2023/04/16 07:28:24;;;;;;;;;30.50;29.00;;;;;;;;4982083;28;45447;-79
2023/04/16 07:30:49;;;;;;;;;28.75;26.00;;;;;;;;4981318;28;45329;-79
2023/04/16 07:33:14;;;;;;;;;31.75;28.75;;;;;;;;4982810;28;45401;-79
2023/04/16 07:35:39;;;;;;;;;39.25;29.25;;;;;;;;4984497;28;45364;-79
2023/04/16 07:38:05;;;;;;;;;31.50;29.00;;;;;;;;4987497;28;45246;-79
2023/04/16 07:40:30;;;;;;;;;27.00;23.50;;;;;;;;4985153;28;45351;-79
2023/04/16 07:42:55;;;;;;;;;25.00;21.75;;;;;;;;4986990;28;45318;-79
2023/04/16 07:45:21;;;;;;;;;23.75;21.25;;;;;;;;4984829;28;45496;-79
2023/04/16 07:47:46;;;;;;;;;29.50;28.25;;;;;;;;4977000;28;45368;-78
2023/04/16 07:50:12;;;;;;;;;33.25;30.00;;;;;;;;4974092;28;45539;-79
2023/04/16 07:52:40;;;;;;;;;31.50;28.75;;;;;;;;4982452;28;46651;-78
2023/04/16 07:55:05;;;;;;;;;28.25;27.00;;;;;;;;4979033;28;45407;-79
2023/04/16 07:57:31;;;;;;;;;26.00;24.75;;;;;;;;4964134;28;45387;-77
2023/04/16 07:59:56;;;;;;;;;27.00;23.00;;;;;;;;4965174;28;45304;-79
2023/04/16 08:02:21;;;;;;;;;27.00;24.25;;;;;;;;4974508;28;46932;-79
2023/04/16 08:04:46;;;;;;;;;22.75;22.75;;;;;;;;4967601;28;45290;-79
2023/04/16 08:07:11;;;;;;;;;33.75;26.25;;;;;;;;4962643;28;45376;-78
2023/04/16 08:09:45;;;;;;;;;26.00;22.25;;;;;;;;4968210;28;45571;-78
2023/04/16 08:12:11;;;;;;;;;24.00;22.75;;;;;;;;4980049;28;46119;-79
2023/04/16 08:14:36;;;;;;;;;25.50;22.00;;;;;;;;4978091;28;45360;-79
2023/04/16 08:17:01;;;;;;;;;22.00;20.75;;;;;;;;4983142;28;45198;-80
2023/04/16 08:19:26;;;;;;;;;20.00;20.00;;;;;;;;4981761;28;45411;-78
2023/04/16 08:21:51;;;;;;;;;26.25;22.00;;;;;;;;4979313;28;46399;-78
2023/04/16 08:24:17;;;;;;;;;23.00;20.50;;;;;;;;4980702;28;45249;-79
2023/04/16 08:26:42;;;;;;;;;20.75;20.75;;;;;;;;4979532;28;45502;-78
2023/04/16 08:29:07;;;;;;;;;27.25;23.50;;;;;;;;4980864;28;45435;-79
2023/04/16 08:31:33;;;;;;;;;26.50;22.25;;;;;;;;4981230;28;45439;-79
2023/04/16 08:33:58;;;;;;;;;27.00;22.75;;;;;;;;4981092;28;45364;-79
2023/04/16 08:36:24;;;;;;;;;27.50;20.25;;;;;;;;4980498;28;45432;-80
2023/04/16 08:38:51;;;;;;;;;22.25;20.50;;;;;;;;4982340;28;45396;-79
2023/04/16 08:41:16;;;;;;;;;25.00;22.75;;;;;;;;4982988;28;46076;-77
2023/04/16 08:43:43;;;;;;;;;21.00;19.50;;;;;;;;4980961;28;45301;-79
2023/04/16 08:46:09;;;;;;;;;19.50;18.50;;;;;;;;4982454;28;45375;-79
2023/04/16 08:48:35;;;;;;;;;27.50;22.00;;;;;;;;4980412;28;45479;-79
2023/04/16 08:51:01;;;;;;;;;25.25;23.00;;;;;;;;4981205;28;45385;-80
2023/04/16 08:53:45;;;;;;;;;22.00;20.50;;;;;;;;4980892;28;45393;-79
2023/04/16 08:56:11;;;;;;;;;18.00;16.25;;;;;;;;4964987;28;45331;-80
2023/04/16 08:58:38;;;;;;;;;22.25;17.50;;;;;;;;4962706;28;45411;-79
2023/04/16 09:01:04;;;;;;;;;20.50;19.00;;;;;;;;4964859;28;45342;-79
2023/04/16 09:03:33;;;;;;;;;27.50;21.75;;;;;;;;4966736;28;45410;-77
2023/04/16 09:05:58;;;;;;;;;23.25;19.00;;;;;;;;4976212;28;44738;-79
2023/04/16 09:08:27;;;;;;;;;20.75;20.25;;;;;;;;4981545;28;45171;-80
2023/04/16 09:10:54;;;;;;;;;18.50;15.75;;;;;;;;4980846;28;46279;-79
2023/04/16 09:13:21;;;;;;;;;18.75;16.75;;;;;;;;4980061;28;45361;-79
2023/04/16 09:15:46;;;;;;;;;18.00;14.75;;;;;;;;4980863;28;45333;-80
2023/04/16 09:18:11;;;;;;;;;20.00;17.25;;;;;;;;4981029;28;45317;-78
2023/04/16 09:20:37;;;;;;;;;13.25;13.25;;;;;;;;4986759;28;46554;-80
2023/04/16 09:23:02;;;;;;;;;17.00;15.50;;;;;;;;5000968;28;45396;-80
2023/04/16 09:25:31;;;;;;;;;16.25;13.25;;;;;;;;5001000;28;45234;-78
2023/04/16 09:27:56;;;;;;;;;9.50;9.50;;;;;;;;5000023;28;45532;-80
2023/04/16 09:30:23;;;;;;;;;14.00;13.00;;;;;;;;4999754;28;46157;-79
2023/04/16 09:32:49;;;;;;;;;11.50;11.25;;;;;;;;5000979;28;45589;-80
2023/04/16 09:35:16;;;;;;;;;14.25;12.75;;;;;;;;5000798;28;45464;-79
2023/04/16 09:37:41;;;;;;;;;12.50;12.00;;;;;;;;5002720;28;45375;-79
2023/04/16 09:40:06;;;;;;;;;13.75;13.25;;;;;;;;5003791;28;45460;-79
2023/04/16 09:42:32;;;;;;;;;12.75;11.00;;;;;;;;5001536;28;45474;-79
2023/04/16 09:44:58;;;;;;;;;12.75;10.00;;;;;;;;5000593;28;45418;-79
2023/04/16 09:47:25;;;;;;;;;7.00;7.00;;;;;;;;4989881;28;45332;-80
2023/04/16 09:49:50;;;;;;;;;16.00;14.00;;;;;;;;4979821;28;46268;-79
2023/04/16 09:52:17;;;;;;;;;16.00;13.00;;;;;;;;4997797;28;45288;-80
2023/04/16 09:54:49;;;;;;;;;8.50;7.50;;;;;;;;4994731;28;45436;-80
2023/04/16 09:57:17;;;;;;;;;12.75;12.25;;;;;;;;4979448;28;45464;-77
2023/04/16 09:59:42;;;;;;;;;18.50;15.50;;;;;;;;4977420;28;46326;-79
2023/04/16 10:02:08;;;;;;;;;11.75;10.50;;;;;;;;4977409;28;45447;-80
2023/04/16 10:04:50;;;;;;;;;11.25;10.75;;;;;;;;4978968;28;45431;-80
2023/04/16 10:07:15;;;;;;;;;11.00;11.00;;;;;;;;4976028;28;45492;-78
2023/04/16 10:09:40;;;;;;;;;13.25;11.75;;;;;;;;4977925;28;46737;-79
2023/04/16 10:12:06;;;;;;;;;14.50;12.50;;;;;;;;4977990;28;45503;-79
2023/04/16 10:14:32;;;;;;;;;13.50;10.75;;;;;;;;4976646;28;45234;-79
2023/04/16 10:16:58;;;;;;;;;13.25;12.75;;;;;;;;4977040;28;45643;-79
2023/04/16 10:19:26;;;;;;;;;12.50;12.50;;;;;;;;4976086;28;46242;-79
2023/04/16 10:21:52;;;;;;;;;3.50;3.50;;;;;;;;4976237;28;45456;-78
2023/04/16 10:24:17;;;;;;;;;15.00;15.00;;;;;;;;4976110;28;45373;-78
2023/04/16 10:26:43;;;;;;;;;46.75;38.00;;;;;;;;4976466;28;45349;-80
2023/04/16 10:29:10;;;;;;;;;22.25;22.00;;;;;;;;4976918;28;45511;-80
2023/04/16 10:31:37;;;;;;;;;10.00;9.50;;;;;;;;4974817;28;45283;-79
2023/04/16 10:34:02;;;;;;;;;54.25;46.00;;;;;;;;4976675;28;45257;-80
2023/04/16 10:36:28;;;;;;;;;9.75;9.00;;;;;;;;4976361;28;45482;-80
2023/04/16 10:38:57;;;;;;;;;27.00;20.75;;;;;;;;4977779;28;47072;-80
2023/04/16 10:41:24;;;;;;;;;13.25;12.50;;;;;;;;4980039;28;45425;-79
2023/04/16 10:43:49;;;;;;;;;13.75;12.25;;;;;;;;4979705;28;45388;-80
2023/04/16 10:46:23;;;;;;;;;11.25;10.00;;;;;;;;4980719;28;45448;-80
2023/04/16 10:48:49;;;;;;;;;20.75;16.25;;;;;;;;4978912;28;46178;-78
2023/04/16 10:51:24;;;;;;;;;11.75;10.50;;;;;;;;4979923;28;45298;-79
2023/04/16 10:53:50;;;;;;;;;14.50;13.00;;;;;;;;4980018;28;45469;-79
2023/04/16 10:56:21;;;;;;;;;34.75;33.50;;;;;;;;4979328;28;45361;-79
2023/04/16 10:58:46;;;;;;;;;28.50;27.50;;;;;;;;4978466;28;45485;-79
2023/04/16 11:01:12;;;;;;;;;15.25;13.50;;;;;;;;4979245;28;45477;-79
2023/04/16 11:03:41;;;;;;;;;8.50;8.50;;;;;;;;4979082;28;45412;-79
2023/04/16 11:06:10;;;;;;;;;11.75;10.00;;;;;;;;4978826;28;45279;-79
2023/04/16 11:08:36;;;;;;;;;11.75;9.75;;;;;;;;4978769;28;46423;-78
2023/04/16 11:11:03;;;;;;;;;17.00;17.00;;;;;;;;4978865;28;45452;-78
2023/04/16 11:13:29;;;;;;;;;10.25;10.25;;;;;;;;4978997;28;45434;-77
2023/04/16 11:15:56;;;;;;;;;7.50;6.00;;;;;;;;4979079;28;45587;-79
2023/04/16 11:18:21;;;;;;;;;10.25;9.25;;;;;;;;4978237;28;45833;-78
2023/04/16 11:20:47;;;;;;;;;11.25;11.25;;;;;;;;4978049;28;45452;-79
2023/04/16 11:23:12;;;;;;;;;10.00;8.75;;;;;;;;4978441;28;45427;-78
2023/04/16 11:25:37;;;;;;;;;13.00;10.50;;;;;;;;4978560;28;45473;-78
2023/04/16 11:28:02;;;;;;;;;7.50;5.75;;;;;;;;4978555;28;46433;-78
2023/04/16 11:30:32;;;;;;;;;15.75;15.75;;;;;;;;4978315;28;45401;-78
2023/04/16 11:32:58;;;;;;;;;10.75;9.00;;;;;;;;4979604;28;45389;-75
2023/04/16 11:35:23;;;;;;;;;7.50;7.25;;;;;;;;4979484;28;45483;-78
2023/04/16 11:37:48;;;;;;;;;8.00;7.50;;;;;;;;4980906;28;45334;-79
2023/04/16 11:40:14;;;;;;;;;8.00;5.00;;;;;;;;4980007;28;45407;-79
2023/04/16 11:42:40;;;;;;;;;16.50;15.50;;;;;;;;4980547;28;45342;-79
2023/04/16 11:45:06;;;;;;;;;12.00;10.75;;;;;;;;4980157;28;45459;-79
2023/04/16 11:47:40;;;;;;;;;4.00;3.00;;;;;;;;4981659;28;46903;-80
2023/04/16 11:50:16;;;;;;;;;7.50;6.00;;;;;;;;4980984;28;45401;-79
2023/04/16 11:52:41;;;;;;;;;8.50;8.50;;;;;;;;4979104;28;45214;-79
2023/04/16 11:55:07;;;;;;;;;6.50;4.75;;;;;;;;4981078;28;45488;-79
2023/04/16 11:57:32;;;;;;;;;3.00;3.00;;;;;;;;4980376;28;45262;-79
2023/04/16 11:59:58;;;;;;;;;10.25;7.25;;;;;;;;4982077;28;45349;-79
2023/04/16 12:02:33;;;;;;;;;8.25;7.75;;;;;;;;4982219;28;45502;-79
2023/04/16 12:04:58;;;;;;;;;8.25;7.00;;;;;;;;4980244;28;45488;-79
2023/04/16 12:07:24;;;;;;;;;7.00;7.00;;;;;;;;4980705;28;45464;-78
2023/04/16 12:09:49;;;;;;;;;4.50;4.50;;;;;;;;4980503;28;45655;-80
2023/04/16 12:12:25;;;;;;;;;5.00;4.75;;;;;;;;4980215;28;45395;-78
2023/04/16 12:14:51;;;;;;;;;6.50;5.25;;;;;;;;4979652;28;45293;-80
2023/04/16 12:17:17;;;;;;;;;4.00;3.75;;;;;;;;4980943;28;45616;-79
2023/04/16 12:19:55;;;;;;;;;6.00;5.00;;;;;;;;4980749;28;45449;-79
2023/04/16 12:22:30;;;;;;;;;3.75;3.75;;;;;;;;4980985;28;45275;-79
2023/04/16 12:25:03;;;;;;;;;4.75;4.75;;;;;;;;4980116;28;45493;-78
2023/04/16 12:27:45;;;;;;;;;7.00;5.75;;;;;;;;4981323;28;46052;-78
2023/04/16 12:30:11;;;;;;;;;4.00;4.00;;;;;;;;4991694;28;44904;-78
2023/04/16 12:32:36;;;;;;;;;5.25;4.00;;;;;;;;4994154;28;44743;-79
2023/04/16 12:35:01;;;;;;;;;4.25;4.25;;;;;;;;4991863;28;45436;-80
2023/04/16 12:37:26;;;;;;;;;6.00;5.00;;;;;;;;4985321;28;46483;-79
2023/04/16 12:39:52;;;;;;;;;4.00;4.00;;;;;;;;4982673;28;45393;-79
2023/04/16 12:42:17;;;;;;;;;6.00;4.50;;;;;;;;4981484;28;45424;-79
2023/04/16 12:44:43;;;;;;;;;3.00;2.00;;;;;;;;4979499;28;45394;-79
2023/04/16 12:47:08;;;;;;;;;6.50;3.75;;;;;;;;4976066;28;46375;-79
2023/04/16 12:49:34;;;;;;;;;3.75;3.75;;;;;;;;4983450;28;46813;-79
2023/04/16 12:51:59;;;;;;;;;1.25;1.25;;;;;;;;4994110;28;45324;-80
2023/04/16 12:54:28;;;;;;;;;4.25;3.00;;;;;;;;4977851;28;45366;-78
2023/04/16 12:56:53;;;;;;;;;4.00;4.00;;;;;;;;4979214;28;45371;-78
2023/04/16 12:59:19;;;;;;;;;3.50;3.50;;;;;;;;4995629;28;45332;-79
2023/04/16 13:01:44;;;;;;;;;3.33;3.33;;;;;;;;4966006;28;45499;-78
2023/04/16 13:04:09;;;;;;;;;4.00;3.75;;;;;;;;4999691;28;45426;-78
2023/04/16 13:06:36;;;;;;;;;2.50;2.50;;;;;;;;4989131;28;46194;-78
2023/04/16 13:09:01;;;;;;;;;3.67;3.67;;;;;;;;4993034;28;45278;-79
2023/04/16 13:11:27;;;;;;;;;4.00;4.00;;;;;;;;4981191;28;45386;-77
2023/04/16 13:13:52;;;;;;;;;5.00;4.00;;;;;;;;4997755;28;45396;-76
2023/04/16 13:16:18;;;;;;;;;4.75;4.75;;;;;;;;4989391;28;46068;-77
2023/04/16 13:18:43;;;;;;;;;4.25;4.25;;;;;;;;4987216;28;45399;-76
2023/04/16 13:21:08;;;;;;;;;5.00;3.00;;;;;;;;4987358;28;45309;-74
2023/04/16 13:23:34;;;;;;;;;2.75;2.75;;;;;;;;4979744;28;45497;-78
2023/04/16 13:25:59;;;;;;;;;3.00;3.00;;;;;;;;4994596;28;46220;-80
2023/04/16 13:28:25;;;;;;;;;3.75;3.00;;;;;;;;4986795;28;45337;-77
2023/04/16 13:30:50;;;;;;;;;4.50;3.25;;;;;;;;4988989;28;45449;-77
2023/04/16 13:33:15;;;;;;;;;4.00;4.00;;;;;;;;4981500;28;45330;-78
2023/04/16 13:35:41;;;;;;;;;2.00;2.00;;;;;;;;4993469;28;46408;-78
2023/04/16 13:38:06;;;;;;;;;5.00;4.33;;;;;;;;4982298;28;45419;-78
2023/04/16 13:40:31;;;;;;;;;3.50;3.25;;;;;;;;4986337;28;45450;-77
2023/04/16 13:42:56;;;;;;;;;2.25;2.25;;;;;;;;4989290;28;45457;-78
2023/04/16 13:45:21;;;;;;;;;4.50;4.50;;;;;;;;4979800;28;46534;-79
2023/04/16 13:47:47;;;;;;;;;4.50;4.50;;;;;;;;4986555;28;45361;-78
2023/04/16 13:50:12;;;;;;;;;3.50;3.50;;;;;;;;4995241;28;45413;-78
2023/04/16 13:52:37;;;;;;;;;3.25;3.25;;;;;;;;4984592;28;45458;-78
2023/04/16 13:55:02;;;;;;;;;4.75;3.75;;;;;;;;4986466;28;45393;-79
2023/04/16 13:57:28;;;;;;;;;0.50;0.50;;;;;;;;4993281;28;45495;-79
2023/04/16 13:59:54;;;;;;;;;4.75;3.75;;;;;;;;4981437;28;45435;-79
2023/04/16 14:02:19;;;;;;;;;2.00;2.00;;;;;;;;4987299;28;45550;-79
2023/04/16 14:04:45;;;;;;;;;3.00;3.00;;;;;;;;4986655;28;45458;-79
2023/04/16 14:07:10;;;;;;;;;5.25;3.50;;;;;;;;4993210;28;45467;-79
2023/04/16 14:09:35;;;;;;;;;4.25;4.25;;;;;;;;4979010;28;45354;-79
2023/04/16 14:12:01;;;;;;;;;3.00;3.00;;;;;;;;4976873;28;45438;-78
2023/04/16 14:14:29;;;;;;;;;2.50;2.50;;;;;;;;4988766;28;46078;-78
2023/04/16 14:16:54;;;;;;;;;4.00;4.00;;;;;;;;4987574;28;45338;-79